Pagrindinis puslapis
METAR-TAF:

METAR-TAF

Oro uostai :

Reschen Pass, Italija

platuma: 46-50N, ilguma: 010-30E, Aukštis: 1800 m

Dabartinis oras

Ataskaita buvo paskelbta 36 minutes, ne 18:55 UTC
Vėjas 8 kt iš Šiaurės/Šiaurės Rytų
Temperatūra 12°C
Drėgmė 71%
Slėgis 1023 hPa
Matomumas 10 km arba daugiau
nėra debesų žemiau 1500 m ir nėra kamuolinių lietaus debesų

METAR: LIVE 191855Z 02008KT CAVOK 12/07 Q1023 RMK SKC VIS MIN 9999

Laikas: 21:31 (19:31 UTC)


TAF: trūkstamas

Orai ataskaitas ir orų prognozės (METAR, TAF).

turimą stotys yra geltonos ir raudonos taškus žemėlapyje.

Perkelti pele per norėdami pamatyti stoties vardą.

Tada spustelėkite, norėdami matyti oro stebėjimo ir prognozės.

Norėdami pakeisti žemėlapį: spustelėkite ant žalios mygtukų su juodo kryžiaus žemyn,; žalią mygtuką su brūkšneliu, jei norite nutolinti; arba žalių rodyklių gretimoms žemėlapius.


METAR-TAF: